East Olympia, Washington
Current Conditions -  °F | °C
As of 1:54 PM on Monday 20 Oct 2014 (Local Time) from KOLM Reporting Station
Broken Clouds Broken Clouds  
Wind Chill: 61°   Ceiling: 3200
Heat Index: 61°   Visibility: 10mi
Dew Point: 55°   Wind: 6mph
Humidity: 81%   Direction: 270°W
Pressure: 29.75"   Gusts: NA
Location:  46.97°N, 122.84°W
Report Text: KOLM 202054Z 27005KT 10SM SCT021 BKN032 BKN043 16/13 A2975 RMK AO2 SLP075 60001 T01610128 58002
Loading
Personal Weather Stations






























Interactive Weather Map New forecast layout! Learn more

10-Day Weather Forecast

Advertisements
Track Severe Weather on mobile